Time;durP1;ratioP1;P1;durP2;ratioP2;P2;SDS_P1;SDS_P2;PMS_P1;PMS_P2;Temp;Humidity;BMP_temperature;BMP_pressure;BME280_temperature;BME280_humidity;BME280_pressure;Samples;Min_cycle;Max_cycle;Signal;HPM_P1;HPM_P2
2022/09/11 00:02:16;;;;;;;;;;;;;;;14.25;100.00;101758.75;5050560;28;19954;-71
2022/09/11 00:04:42;;;;;;;;;;;;;;;14.23;100.00;101755.28;5051123;28;20029;-71
2022/09/11 00:07:07;;;;;;;;;;;;;;;14.21;100.00;101755.38;5050301;28;20009;-71
2022/09/11 00:09:33;;;;;;;;;;;;;;;14.19;100.00;101754.56;5050600;28;19981;-71
2022/09/11 00:11:58;;;;;;;;;;;;;;;14.18;100.00;101758.19;5052475;28;19940;-71
2022/09/11 00:14:27;;;;;;;;;;;;;;;14.16;100.00;101765.34;5049208;28;19933;-71
2022/09/11 00:16:53;;;;;;;;;;;;;;;14.17;100.00;101766.22;5050236;28;19929;-71
2022/09/11 00:19:18;;;;;;;;;;;;;;;14.16;100.00;101760.03;5056888;28;19936;-71
2022/09/11 00:21:44;;;;;;;;;;;;;;;14.17;100.00;101755.56;5052369;28;19933;-71
2022/09/11 00:24:13;;;;;;;;;;;;;;;14.16;100.00;101765.34;5053268;28;19925;-71
2022/09/11 00:26:39;;;;;;;;;;;;;;;14.18;100.00;101759.97;5036248;28;19928;-72
2022/09/11 00:29:05;;;;;;;;;;;;;;;14.17;100.00;101767.06;5051765;28;20563;-70
2022/09/11 00:31:31;;;;;;;;;;;;;;;14.17;100.00;101764.41;5051777;28;19932;-71
2022/09/11 00:33:56;;;;;;;;;;;;;;;14.15;100.00;101763.63;5051357;28;19990;-70
2022/09/11 00:36:23;;;;;;;;;;;;;;;14.16;100.00;101769.84;5052879;28;19929;-72
2022/09/11 00:38:49;;;;;;;;;;;;;;;14.13;100.00;101770.84;5034021;28;20383;-70
2022/09/11 00:41:40;;;;;;;;;;;;;;;14.10;100.00;101770.97;5048805;28;19974;-71
2022/09/11 00:44:06;;;;;;;;;;;;;;;14.06;100.00;101769.38;5048705;28;19975;-71
2022/09/11 00:46:39;;;;;;;;;;;;;;;14.03;100.00;101772.16;5053007;28;20007;-71
2022/09/11 00:49:10;;;;;;;;;;;;;;;14.01;100.00;101766.06;5049537;28;19932;-71
2022/09/11 00:51:36;;;;;;;;;;;;;;;13.98;100.00;101765.28;5049912;28;19929;-71
2022/09/11 00:54:02;;;;;;;;;;;;;;;13.96;100.00;101764.47;5048937;28;19928;-72
2022/09/11 00:56:28;;;;;;;;;;;;;;;13.94;100.00;101771.66;5049133;28;20074;-71
2022/09/11 00:58:54;;;;;;;;;;;;;;;13.94;100.00;101765.50;5048742;28;19931;-71
2022/09/11 01:01:19;;;;;;;;;;;;;;;13.95;100.00;101764.56;5050654;28;19920;-71
2022/09/11 01:03:45;;;;;;;;;;;;;;;13.94;100.00;101761.00;5043185;28;19951;-70
2022/09/11 01:06:10;;;;;;;;;;;;;;;13.93;100.00;101756.63;5048984;28;19921;-71
2022/09/11 01:08:35;;;;;;;;;;;;;;;13.91;100.00;101758.50;5026767;28;19979;-70
2022/09/11 01:11:12;;;;;;;;;;;;;;;13.91;100.00;101757.63;5050081;28;20375;-71
2022/09/11 01:13:46;;;;;;;;;;;;;;;13.89;100.00;101757.69;5050501;28;19928;-70
2022/09/11 01:16:24;;;;;;;;;;;;;;;13.87;100.00;101751.56;5050776;28;19935;-72
2022/09/11 01:19:12;;;;;;;;;;;;;;;13.83;100.00;101748.19;5050647;28;20041;-72
2022/09/11 01:21:51;;;;;;;;;;;;;;;13.81;100.00;101754.50;5048505;28;19974;-72
2022/09/11 01:24:35;;;;;;;;;;;;;;;13.79;100.00;101759.06;5050871;28;20043;-71
2022/09/11 01:27:01;;;;;;;;;;;;;;;13.76;100.00;101745.88;5052114;28;19959;-71
2022/09/11 01:29:34;;;;;;;;;;;;;;;13.75;100.00;101760.09;5050628;28;19925;-71
2022/09/11 01:32:20;;;;;;;;;;;;;;;13.74;100.00;101759.25;5050569;28;20011;-71
2022/09/11 01:34:45;;;;;;;;;;;;;;;13.72;100.00;101761.09;5048495;28;19920;-71
2022/09/11 01:37:16;;;;;;;;;;;;;;;13.70;100.00;101761.19;5049068;28;19951;-70
2022/09/11 01:39:46;;;;;;;;;;;;;;;13.67;100.00;101763.97;5049684;28;20015;-71
2022/09/11 01:42:13;;;;;;;;;;;;;;;13.65;100.00;101760.53;5049784;28;19924;-71
2022/09/11 01:44:42;;;;;;;;;;;;;;;13.62;100.00;101760.63;5032421;28;19929;-71
2022/09/11 01:47:09;;;;;;;;;;;;;;;13.59;100.00;101755.47;5049149;28;19939;-70
2022/09/11 01:49:35;;;;;;;;;;;;;;;13.60;100.00;101761.63;5049766;28;19924;-71
2022/09/11 01:52:03;;;;;;;;;;;;;;;13.56;100.00;101767.09;5030691;28;19929;-71
2022/09/11 01:54:30;;;;;;;;;;;;;;;13.54;100.00;101762.78;5049491;28;19924;-72
2022/09/11 01:56:59;;;;;;;;;;;;;;;13.53;100.00;101761.06;5052222;28;19931;-72
2022/09/11 01:59:33;;;;;;;;;;;;;;;13.50;100.00;101769.19;5051438;28;20241;-72
2022/09/11 02:02:09;;;;;;;;;;;;;;;13.47;100.00;101766.63;5052312;28;19987;-72
2022/09/11 02:04:36;;;;;;;;;;;;;;;13.44;100.00;101768.47;5054525;28;21431;-73
2022/09/11 02:07:22;;;;;;;;;;;;;;;13.43;100.00;101766.75;5052253;28;20019;-72
2022/09/11 02:09:53;;;;;;;;;;;;;;;13.39;100.00;101772.25;5051566;28;20667;-72
2022/09/11 02:12:19;;;;;;;;;;;;;;;13.37;100.00;101769.66;5064474;28;19935;-72
2022/09/11 02:14:45;;;;;;;;;;;;;;;13.34;100.00;101767.13;5053410;28;19929;-72
2022/09/11 02:17:20;;;;;;;;;;;;;;;13.33;100.00;101762.72;5052434;28;19932;-73
2022/09/11 02:19:45;;;;;;;;;;;;;;;13.30;100.00;101760.22;5052950;28;19931;-72
2022/09/11 02:22:11;;;;;;;;;;;;;;;13.27;100.00;101766.53;5051839;28;20342;-71
2022/09/11 02:24:36;;;;;;;;;;;;;;;13.25;100.00;101762.19;5039212;28;20533;-71
2022/09/11 02:27:13;;;;;;;;;;;;;;;13.21;100.00;101757.94;5051286;28;20393;-71
2022/09/11 02:29:38;;;;;;;;;;;;;;;13.17;100.00;101760.72;5050228;28;20406;-71
2022/09/11 02:32:04;;;;;;;;;;;;;;;13.13;100.00;101764.44;5052841;28;19928;-71
2022/09/11 02:34:33;;;;;;;;;;;;;;;13.11;100.00;101768.97;5046353;28;19925;-71
2022/09/11 02:36:58;;;;;;;;;;;;;;;13.08;100.00;101765.56;5051058;28;19940;-71
2022/09/11 02:39:33;;;;;;;;;;;;;;;13.07;100.00;101764.69;5053737;28;19960;-71
2022/09/11 02:42:11;;;;;;;;;;;;;;;13.07;100.00;101769.16;5061571;28;19990;-71
2022/09/11 02:44:43;;;;;;;;;;;;;;;13.08;100.00;101776.19;5054976;28;20421;-71
2022/09/11 02:47:10;;;;;;;;;;;;;;;13.09;100.00;101775.28;5052075;28;20484;-71
2022/09/11 02:49:43;;;;;;;;;;;;;;;13.10;100.00;101780.53;5052624;28;19994;-71
2022/09/11 02:52:08;;;;;;;;;;;;;;;13.09;100.00;101777.94;5053387;28;20396;-71
2022/09/11 02:54:39;;;;;;;;;;;;;;;13.08;100.00;101782.38;5036916;28;19928;-71
2022/09/11 02:57:06;;;;;;;;;;;;;;;13.08;100.00;101784.19;5036302;28;19924;-71
2022/09/11 02:59:36;;;;;;;;;;;;;;;13.06;100.00;101783.38;5041083;28;19935;-71
2022/09/11 03:02:02;;;;;;;;;;;;;;;13.04;100.00;101786.09;5051193;28;19929;-71
2022/09/11 03:04:28;;;;;;;;;;;;;;;13.04;100.00;101786.09;5040533;28;20009;-71
2022/09/11 03:06:54;;;;;;;;;;;;;;;13.00;100.00;101787.13;5052788;28;20023;-71
2022/09/11 03:09:19;;;;;;;;;;;;;;;12.97;100.00;101789.94;5050237;28;19928;-70
2022/09/11 03:11:44;;;;;;;;;;;;;;;12.93;100.00;101791.84;5051262;28;20521;-70
2022/09/11 03:14:10;;;;;;;;;;;;;;;12.88;100.00;101784.06;5051054;28;19929;-72
2022/09/11 03:16:35;;;;;;;;;;;;;;;12.84;100.00;101793.09;5050447;28;19938;-71
2022/09/11 03:19:01;;;;;;;;;;;;;;;12.81;100.00;101789.69;5019527;28;20037;-71
2022/09/11 03:21:27;;;;;;;;;;;;;;;12.77;100.00;101788.94;5052483;28;19929;-72
2022/09/11 03:23:52;;;;;;;;;;;;;;;12.76;100.00;101793.38;5052047;28;19954;-71
2022/09/11 03:26:18;;;;;;;;;;;;;;;12.77;100.00;101791.59;5053472;28;19976;-72
2022/09/11 03:28:44;;;;;;;;;;;;;;;12.77;100.00;101791.59;5051820;28;19920;-71
2022/09/11 03:31:12;;;;;;;;;;;;;;;12.78;100.00;101798.63;5060309;28;19927;-71
2022/09/11 03:33:38;;;;;;;;;;;;;;;12.78;100.00;101795.97;5033752;28;19925;-71
2022/09/11 03:36:03;;;;;;;;;;;;;;;12.77;100.00;101804.88;5034052;28;20375;-72
2022/09/11 03:38:29;;;;;;;;;;;;;;;12.76;100.00;101808.47;5053867;28;19928;-71
2022/09/11 03:40:54;;;;;;;;;;;;;;;12.76;100.00;101808.47;5050044;28;20180;-71
2022/09/11 03:43:20;;;;;;;;;;;;;;;12.76;100.00;101808.47;5051606;28;19928;-71
2022/09/11 03:45:49;;;;;;;;;;;;;;;12.77;100.00;101804.88;5050172;28;19924;-71
2022/09/11 03:48:14;;;;;;;;;;;;;;;12.74;100.00;101803.19;5050568;28;19929;-71
2022/09/11 03:50:40;;;;;;;;;;;;;;;12.73;100.00;101797.94;5050584;28;19988;-71
2022/09/11 03:53:05;;;;;;;;;;;;;;;12.75;100.00;101804.09;5049187;28;19931;-72
2022/09/11 03:55:30;;;;;;;;;;;;;;;12.74;100.00;101797.00;5051933;28;19924;-72
2022/09/11 03:57:57;;;;;;;;;;;;;;;12.74;100.00;101800.53;5051291;28;20058;-71
2022/09/11 04:00:23;;;;;;;;;;;;;;;12.72;100.00;101802.41;5052203;28;20493;-72
2022/09/11 04:02:49;;;;;;;;;;;;;;;12.72;100.00;101805.06;5050862;28;19959;-72
2022/09/11 04:05:14;;;;;;;;;;;;;;;12.71;100.00;101806.00;5036796;28;19924;-72
2022/09/11 04:07:40;;;;;;;;;;;;;;;12.68;100.00;101805.25;5052594;28;19975;-72
2022/09/11 04:10:05;;;;;;;;;;;;;;;12.67;100.00;101809.69;5052589;28;20361;-72
2022/09/11 04:12:32;;;;;;;;;;;;;;;12.65;100.00;101803.56;5039809;28;19925;-72
2022/09/11 04:14:57;;;;;;;;;;;;;;;12.62;100.00;101798.38;5034869;28;20007;-72
2022/09/11 04:17:23;;;;;;;;;;;;;;;12.62;100.00;101806.34;5047776;28;19935;-72
2022/09/11 04:19:48;;;;;;;;;;;;;;;12.59;100.00;101807.31;5050120;28;20390;-72
2022/09/11 04:22:14;;;;;;;;;;;;;;;12.59;100.00;101811.78;5052363;28;21370;-71
2022/09/11 04:24:39;;;;;;;;;;;;;;;12.57;100.00;101814.50;5050223;28;21429;-72
2022/09/11 04:27:04;;;;;;;;;;;;;;;12.57;100.00;101818.91;5049704;28;19932;-71
2022/09/11 04:29:31;;;;;;;;;;;;;;;12.55;100.00;101815.47;5049563;28;19932;-72
2022/09/11 04:31:57;;;;;;;;;;;;;;;12.54;100.00;101814.63;5050392;28;19928;-72
2022/09/11 04:34:22;;;;;;;;;;;;;;;12.54;100.00;101813.75;5048939;28;19994;-71
2022/09/11 04:36:48;;;;;;;;;;;;;;;12.53;100.00;101818.16;5049526;28;20302;-72
2022/09/11 04:39:15;;;;;;;;;;;;;;;12.52;100.00;101824.41;5049467;28;20407;-72
2022/09/11 04:41:40;;;;;;;;;;;;;;;12.52;100.00;101832.38;5049809;28;20063;-72
2022/09/11 04:44:05;;;;;;;;;;;;;;;12.52;100.00;101832.38;5049822;28;19933;-72
2022/09/11 04:46:31;;;;;;;;;;;;;;;12.50;100.00;101835.09;5052240;28;19928;-71
2022/09/11 04:49:01;;;;;;;;;;;;;;;12.51;100.00;101835.97;5049843;28;19969;-72
2022/09/11 04:51:27;;;;;;;;;;;;;;;12.51;100.00;101841.28;5039200;28;19929;-72
2022/09/11 04:53:56;;;;;;;;;;;;;;;12.52;100.00;101832.38;5050218;28;20035;-72
2022/09/11 04:56:22;;;;;;;;;;;;;;;12.53;100.00;101831.47;5048858;28;20048;-72
2022/09/11 04:58:54;;;;;;;;;;;;;;;12.54;100.00;101835.88;5050681;28;19924;-72
2022/09/11 05:01:20;;;;;;;;;;;;;;;12.56;100.00;101833.13;5048751;28;20634;-71
2022/09/11 05:03:45;;;;;;;;;;;;;;;12.58;100.00;101839.28;5030695;28;20045;-72
2022/09/11 05:06:11;;;;;;;;;;;;;;;12.61;100.00;101834.72;5049301;28;20306;-72
2022/09/11 05:08:36;;;;;;;;;;;;;;;12.66;100.00;101844.28;5048404;28;19939;-72
2022/09/11 05:11:04;;;;;;;;;;;;;;;12.68;100.00;101842.44;5047187;28;20311;-72
2022/09/11 05:13:30;;;;;;;;;;;;;;;12.71;100.00;101839.66;5051334;28;19933;-72
2022/09/11 05:16:08;;;;;;;;;;;;;;;12.75;100.00;101839.47;5051534;28;21050;-72
2022/09/11 05:18:34;;;;;;;;;;;;;;;12.79;100.00;101847.34;5050227;28;19943;-72
2022/09/11 05:21:00;;;;;;;;;;;;;;;12.82;100.00;101849.88;5052287;28;19928;-72
2022/09/11 05:23:26;;;;;;;;;;;;;;;12.84;100.00;101867.47;5034223;28;19970;-72
2022/09/11 05:25:56;;;;;;;;;;;;;;;12.89;100.00;101868.19;5050951;28;19947;-72
2022/09/11 05:28:22;;;;;;;;;;;;;;;12.93;100.00;101868.03;5052489;28;19953;-72
2022/09/11 05:30:48;;;;;;;;;;;;;;;12.96;100.00;101870.59;5053445;28;19929;-71
2022/09/11 05:33:13;;;;;;;;;;;;;;;13.00;100.00;101875.72;5053965;28;19933;-71
2022/09/11 05:35:39;;;;;;;;;;;;;;;13.04;100.00;101874.66;5054917;28;19933;-72
2022/09/11 05:38:05;;;;;;;;;;;;;;;13.08;100.00;101880.72;5053941;28;19931;-71
2022/09/11 05:40:30;;;;;;;;;;;;;;;13.13;100.00;101877.91;5050942;28;20331;-71
2022/09/11 05:42:55;;;;;;;;;;;;;;;13.16;100.00;101886.63;5052928;28;19955;-71
2022/09/11 05:45:21;;;;;;;;;;;;;;;13.20;100.00;101884.72;5051185;28;19928;-71
2022/09/11 05:47:46;;;;;;;;;;;;;;;13.24;100.00;101888.13;5051145;28;19928;-71
2022/09/11 05:50:12;;;;;;;;;;;;;;;13.27;100.00;101887.97;5053156;28;20659;-71
2022/09/11 05:52:37;;;;;;;;;;;;;;;13.29;100.00;101892.31;5052962;28;20375;-72
2022/09/11 05:55:03;;;;;;;;;;;;;;;13.34;100.00;101892.13;5050725;28;21242;-71
2022/09/11 05:57:28;;;;;;;;;;;;;;;13.36;100.00;101897.38;5052589;28;19938;-71
2022/09/11 05:59:54;;;;;;;;;;;;;;;13.38;100.00;101895.50;5040286;28;19939;-71
2022/09/11 06:02:19;;;;;;;;;;;;;;;13.38;100.00;101891.06;5051622;28;19929;-73
2022/09/11 06:04:45;;;;;;;;;;;;;;;13.39;100.00;101892.81;5056067;28;19932;-72
2022/09/11 06:07:10;;;;;;;;;;;;;;;13.41;100.00;101890.94;5052829;28;19928;-71
2022/09/11 06:09:35;;;;;;;;;;;;;;;13.43;100.00;101894.44;5023741;28;19924;-72
2022/09/11 06:12:01;;;;;;;;;;;;;;;13.46;100.00;101900.56;5040733;28;21447;-73
2022/09/11 06:14:26;;;;;;;;;;;;;;;13.48;100.00;101898.69;5052859;28;21419;-72
2022/09/11 06:16:55;;;;;;;;;;;;;;;13.53;100.00;101904.72;5038915;28;20291;-73
2022/09/11 06:19:20;;;;;;;;;;;;;;;13.55;100.00;101903.72;5050127;28;19951;-72
2022/09/11 06:21:46;;;;;;;;;;;;;;;13.59;100.00;101904.47;5052543;28;21291;-72
2022/09/11 06:24:11;;;;;;;;;;;;;;;13.63;100.00;101907.84;5051592;28;20405;-72
2022/09/11 06:26:36;;;;;;;;;;;;;;;13.69;100.00;101908.44;5050726;28;20391;-72
2022/09/11 06:29:02;;;;;;;;;;;;;;;13.77;100.00;101905.47;5052660;28;19939;-72
2022/09/11 06:31:28;;;;;;;;;;;;;;;13.85;100.00;101915.81;5050850;28;19928;-72
2022/09/11 06:33:54;;;;;;;;;;;;;;;13.94;100.00;101910.09;5051522;28;19928;-72
2022/09/11 06:36:21;;;;;;;;;;;;;;;14.03;100.00;101918.59;5051724;28;20501;-72
2022/09/11 06:38:50;;;;;;;;;;;;;;;14.11;100.00;101912.03;5050904;28;19936;-73
2022/09/11 06:41:16;;;;;;;;;;;;;;;14.19;100.00;101903.72;5051899;28;19955;-72
2022/09/11 06:43:42;;;;;;;;;;;;;;;14.28;100.00;101907.78;5053366;28;20015;-72
2022/09/11 06:46:11;;;;;;;;;;;;;;;14.35;100.00;101909.22;5049840;28;20464;-73
2022/09/11 06:48:40;;;;;;;;;;;;;;;14.41;100.00;101902.75;5050494;28;20379;-71
2022/09/11 06:51:06;;;;;;;;;;;;;;;14.51;100.00;101908.53;5034791;28;20342;-71
2022/09/11 06:53:32;;;;;;;;;;;;;;;14.60;100.00;101915.25;5028472;28;20325;-72
2022/09/11 06:56:01;;;;;;;;;;;;;;;14.68;100.00;101910.44;5034529;28;19924;-72
2022/09/11 06:58:28;;;;;;;;;;;;;;;14.78;100.00;101911.75;5051303;28;20421;-72
2022/09/11 07:00:54;;;;;;;;;;;;;;;14.85;100.00;101907.00;5066161;28;19981;-72
2022/09/11 07:03:19;;;;;;;;;;;;;;;14.93;100.00;101914.66;5066468;28;20024;-72
2022/09/11 07:05:46;;;;;;;;;;;;;;;15.03;100.00;101909.75;5050898;28;19931;-71
2022/09/11 07:08:11;;;;;;;;;;;;;;;15.09;100.00;101913.94;5033130;28;20360;-72
2022/09/11 07:10:36;;;;;;;;;;;;;;;15.15;100.00;101913.63;5049607;28;20500;-71
2022/09/11 07:13:02;;;;;;;;;;;;;;;15.23;100.00;101913.25;5052504;28;20064;-71
2022/09/11 07:15:27;;;;;;;;;;;;;;;15.31;100.00;101911.94;5050691;28;19995;-71
2022/09/11 07:17:54;;;;;;;;;;;;;;;15.43;100.00;101912.28;5054251;28;20030;-71
2022/09/11 07:20:19;;;;;;;;;;;;;;;15.52;100.00;101909.16;5050363;28;19928;-71
2022/09/11 07:22:45;;;;;;;;;;;;;;;15.58;100.00;101908.00;5050644;28;20060;-71
2022/09/11 07:25:11;;;;;;;;;;;;;;;15.68;100.00;101911.09;5053590;28;19924;-71
2022/09/11 07:27:36;;;;;;;;;;;;;;;15.77;100.00;101904.41;5052104;28;19929;-71
2022/09/11 07:30:02;;;;;;;;;;;;;;;15.85;100.00;101911.06;5051180;28;19936;-71
2022/09/11 07:32:29;;;;;;;;;;;;;;;15.94;100.00;101911.56;5052312;28;20028;-71
2022/09/11 07:34:55;;;;;;;;;;;;;;;15.97;100.00;101909.59;5053550;28;20014;-71
2022/09/11 07:37:20;;;;;;;;;;;;;;;16.02;100.00;101909.41;5052137;28;20373;-71
2022/09/11 07:39:46;;;;;;;;;;;;;;;16.11;100.00;101919.59;5053218;28;20362;-71
2022/09/11 07:42:11;;;;;;;;;;;;;;;16.17;100.00;101918.41;5051463;28;19932;-70
2022/09/11 07:44:37;;;;;;;;;;;;;;;16.21;100.00;101925.31;5048035;28;19928;-70
2022/09/11 07:47:02;;;;;;;;;;;;;;;16.28;100.00;101916.03;5052475;28;19940;-71
2022/09/11 07:49:27;;;;;;;;;;;;;;;16.35;100.00;101915.72;5050846;28;19928;-71
2022/09/11 07:51:53;;;;;;;;;;;;;;;16.41;100.00;101920.75;5049997;28;20330;-71
2022/09/11 07:54:19;;;;;;;;;;;;;;;16.49;100.00;101923.84;5048481;28;19936;-72
2022/09/11 07:56:44;;;;;;;;;;;;;;;16.54;100.00;101918.25;5050635;28;19925;-72
2022/09/11 07:59:09;;;;;;;;;;;;;;;16.62;100.00;101932.06;5065578;28;19935;-71
2022/09/11 08:01:35;;;;;;;;;;;;;;;16.66;100.00;101924.75;5050421;28;20477;-70
2022/09/11 08:04:02;;;;;;;;;;;;;;;16.73;100.00;101918.16;5050174;28;19932;-72
2022/09/11 08:06:28;;;;;;;;;;;;;;;16.82;100.00;101925.66;5049770;28;19924;-72
2022/09/11 08:08:54;;;;;;;;;;;;;;;16.88;100.00;101929.78;5050095;28;19967;-72
2022/09/11 08:11:20;;;;;;;;;;;;;;;16.95;100.00;101931.19;5048799;28;19928;-72
2022/09/11 08:13:52;;;;;;;;;;;;;;;17.00;100.00;101938.09;5048536;28;19959;-72
2022/09/11 08:16:18;;;;;;;;;;;;;;;17.06;100.00;101929.75;5048607;28;19932;-72
2022/09/11 08:18:44;;;;;;;;;;;;;;;17.16;100.00;101938.13;5048577;28;19924;-71
2022/09/11 08:21:10;;;;;;;;;;;;;;;17.20;100.00;101943.22;5048612;28;19943;-72
2022/09/11 08:23:36;;;;;;;;;;;;;;;17.21;100.00;101936.91;5048237;28;21430;-72
2022/09/11 08:26:02;;;;;;;;;;;;;;;17.28;100.00;101941.94;5048595;28;20015;-72
2022/09/11 08:28:29;;;;;;;;;;;;;;;17.30;100.00;101945.38;5049941;28;19974;-72
2022/09/11 08:30:57;;;;;;;;;;;;;;;17.33;100.00;101943.38;5049810;28;19927;-72
2022/09/11 08:33:23;;;;;;;;;;;;;;;17.42;100.00;101943.84;5048262;28;21634;-71
2022/09/11 08:35:48;;;;;;;;;;;;;;;17.48;100.00;101944.31;5048557;28;19932;-71
2022/09/11 08:38:14;;;;;;;;;;;;;;;17.55;100.00;101947.53;5050213;28;19928;-72
2022/09/11 08:40:39;;;;;;;;;;;;;;;17.64;100.00;101951.47;5035200;28;20066;-73
2022/09/11 08:43:05;;;;;;;;;;;;;;;17.72;100.00;101946.53;5039616;28;20889;-72
2022/09/11 08:45:32;;;;;;;;;;;;;;;17.83;100.00;101939.69;5050052;28;19928;-72
2022/09/11 08:47:58;;;;;;;;;;;;;;;17.95;100.00;101946.13;5047648;28;20401;-72
2022/09/11 08:50:24;;;;;;;;;;;;;;;18.04;100.00;101950.94;5050328;28;19948;-72
2022/09/11 08:52:50;;;;;;;;;;;;;;;18.14;100.00;101943.25;5051581;28;19928;-72
2022/09/11 08:55:16;;;;;;;;;;;;;;;18.15;100.00;101956.53;5055491;28;20268;-72
2022/09/11 08:57:50;;;;;;;;;;;;;;;18.11;100.00;101959.50;5053707;28;20126;-72
2022/09/11 09:00:19;;;;;;;;;;;;;;;18.01;100.00;101945.75;5049265;28;19928;-72
2022/09/11 09:02:51;;;;;;;;;;;;;;;17.97;100.00;101961.16;5032839;28;19975;-72
2022/09/11 09:05:22;;;;;;;;;;;;;;;17.91;100.00;101950.78;5054534;28;20019;-72
2022/09/11 09:07:51;;;;;;;;;;;;;;;17.91;100.00;101950.78;5056997;28;20311;-72
2022/09/11 09:10:16;;;;;;;;;;;;;;;17.95;100.00;101949.69;5055658;28;20406;-72
2022/09/11 09:12:42;;;;;;;;;;;;;;;18.04;100.00;101956.31;5048257;28;20015;-72
2022/09/11 09:15:16;;;;;;;;;;;;;;;18.10;100.00;101949.75;5056053;28;19956;-72
2022/09/11 09:17:44;;;;;;;;;;;;;;;18.18;100.00;101952.81;5053159;28;19978;-72
2022/09/11 09:20:19;;;;;;;;;;;;;;;18.24;100.00;101941.72;5054065;28;19951;-72
2022/09/11 09:23:04;;;;;;;;;;;;;;;18.26;100.00;101947.84;5052811;28;19925;-72
2022/09/11 09:25:29;;;;;;;;;;;;;;;18.33;100.00;101951.03;5055179;28;20008;-71
2022/09/11 09:27:56;;;;;;;;;;;;;;;18.37;100.00;101951.69;5051942;28;19932;-72
2022/09/11 09:30:26;;;;;;;;;;;;;;;18.43;100.00;101948.66;5055040;28;19933;-71
2022/09/11 09:32:57;;;;;;;;;;;;;;;18.51;100.00;101953.56;5037507;28;19960;-71
2022/09/11 09:35:28;;;;;;;;;;;;;;;18.56;100.00;101952.31;5054694;28;20269;-72
2022/09/11 09:37:53;;;;;;;;;;;;;;;18.67;100.00;101954.31;5052035;28;19928;-72
2022/09/11 09:40:19;;;;;;;;;;;;;;;18.75;100.00;101959.19;5052721;28;19929;-71
2022/09/11 09:42:44;;;;;;;;;;;;;;;18.81;100.00;101956.13;5051173;28;19924;-71
2022/09/11 09:45:16;;;;;;;;;;;;;;;18.87;100.00;101957.56;5053450;28;19924;-72
2022/09/11 09:47:43;;;;;;;;;;;;;;;18.95;100.00;101963.28;5054750;28;20046;-72
2022/09/11 09:50:35;;;;;;;;;;;;;;;19.03;100.00;101968.22;5052877;28;19931;-71
2022/09/11 09:53:14;;;;;;;;;;;;;;;19.14;100.00;101964.84;5053796;28;20375;-71
2022/09/11 09:55:39;;;;;;;;;;;;;;;19.27;100.00;101967.59;5053666;28;19928;-71
2022/09/11 09:58:06;;;;;;;;;;;;;;;19.37;100.00;101963.34;5053387;28;20322;-72
2022/09/11 10:00:32;;;;;;;;;;;;;;;19.39;100.00;101969.47;5053689;28;19931;-72
2022/09/11 10:02:57;;;;;;;;;;;;;;;19.35;100.00;101969.78;5052049;28;19952;-72
2022/09/11 10:05:26;;;;;;;;;;;;;;;19.32;100.00;101969.97;5053900;28;19939;-71
2022/09/11 10:07:52;;;;;;;;;;;;;;;19.30;100.00;101971.91;5053068;28;19935;-71
2022/09/11 10:10:47;;;;;;;;;;;;;;;19.20;100.00;101983.25;5055598;28;20303;-72
2022/09/11 10:13:15;;;;;;;;;;;;;;;19.07;100.00;101977.78;5042399;28;19936;-71
2022/09/11 10:15:41;;;;;;;;;;;;;;;18.98;100.00;101973.84;5053520;28;19932;-72
2022/09/11 10:18:26;;;;;;;;;;;;;;;18.91;100.00;101969.81;5051919;28;20413;-72
2022/09/11 10:20:51;;;;;;;;;;;;;;;18.79;100.00;101974.13;5054194;28;19931;-71
2022/09/11 10:23:24;;;;;;;;;;;;;;;18.70;100.00;101975.56;5052667;28;19932;-72
2022/09/11 10:25:50;;;;;;;;;;;;;;;18.64;100.00;101975.09;5052674;28;19929;-72
2022/09/11 10:28:18;;;;;;;;;;;;;;;18.60;100.00;101974.41;5040052;28;19931;-72
2022/09/11 10:30:46;;;;;;;;;;;;;;;18.59;100.00;101968.19;5049906;28;20096;-72
2022/09/11 10:33:17;;;;;;;;;;;;;;;18.62;100.00;101966.28;5048936;28;19925;-72
2022/09/11 10:35:48;;;;;;;;;;;;;;;18.70;100.00;101970.19;5049889;28;20023;-72
2022/09/11 10:38:16;;;;;;;;;;;;;;;18.78;100.00;101971.56;5050758;28;20462;-72
2022/09/11 10:40:46;;;;;;;;;;;;;;;18.84;100.00;101966.66;5053071;28;19929;-73
2022/09/11 10:43:18;;;;;;;;;;;;;;;18.91;99.81;101966.28;5053011;28;20037;-70
2022/09/11 10:46:00;;;;;;;;;;;;;;;18.97;99.48;101965.88;5052354;28;19932;-70
2022/09/11 10:48:25;;;;;;;;;;;;;;;19.05;98.12;101968.97;5050877;28;19929;-71
2022/09/11 10:51:01;;;;;;;;;;;;;;;19.10;96.45;101969.53;5033994;28;20125;-71
2022/09/11 10:53:27;;;;;;;;;;;;;;;19.17;94.87;101955.72;5050146;28;19956;-71
2022/09/11 10:55:57;;;;;;;;;;;;;;;19.25;95.45;101956.97;5050419;28;20893;-71
2022/09/11 10:58:23;;;;;;;;;;;;;;;19.33;95.16;101951.06;5050009;28;19936;-71
2022/09/11 11:00:50;;;;;;;;;;;;;;;19.39;95.55;101945.31;5051365;28;20292;-71
2022/09/11 11:03:22;;;;;;;;;;;;;;;19.51;96.17;101953.53;5051439;28;20409;-71
2022/09/11 11:06:05;;;;;;;;;;;;;;;19.57;94.90;101950.44;5051762;28;19928;-71
2022/09/11 11:08:46;;;;;;;;;;;;;;;19.64;94.21;101948.19;5051249;28;19924;-71
2022/09/11 11:11:24;;;;;;;;;;;;;;;19.72;92.59;101950.38;5052029;28;19951;-70
2022/09/11 11:14:10;;;;;;;;;;;;;;;19.75;96.88;101951.03;5052415;28;19934;-71
2022/09/11 11:16:48;;;;;;;;;;;;;;;19.84;98.12;101944.19;5052489;28;19962;-70
2022/09/11 11:19:20;;;;;;;;;;;;;;;19.92;94.75;101939.13;5053884;28;19916;-71
2022/09/11 11:21:46;;;;;;;;;;;;;;;19.94;93.69;101939.03;5042312;28;19932;-71
2022/09/11 11:24:12;;;;;;;;;;;;;;;19.94;95.94;101952.47;5051303;28;20553;-71
2022/09/11 11:27:04;;;;;;;;;;;;;;;19.94;94.56;101945.25;5051876;28;20053;-70
2022/09/11 11:29:51;;;;;;;;;;;;;;;19.94;95.78;101944.41;5044115;28;19936;-71
2022/09/11 11:32:23;;;;;;;;;;;;;;;19.89;93.31;101955.44;5050535;28;19948;-71
2022/09/11 11:34:50;;;;;;;;;;;;;;;19.93;94.06;101953.41;5051155;28;20358;-71
2022/09/11 11:37:19;;;;;;;;;;;;;;;19.99;94.14;101947.66;5050689;28;19955;-71
2022/09/11 11:39:47;;;;;;;;;;;;;;;20.08;95.95;101951.56;5049050;28;20481;-71
2022/09/11 11:42:20;;;;;;;;;;;;;;;20.07;92.68;101958.78;5051104;28;19939;-71
2022/09/11 11:44:47;;;;;;;;;;;;;;;20.02;92.25;101955.53;5050441;28;19925;-71
2022/09/11 11:47:13;;;;;;;;;;;;;;;19.94;91.39;101950.63;5050783;28;20660;-71
2022/09/11 11:49:41;;;;;;;;;;;;;;;19.91;92.20;101958.91;5049586;28;19974;-71
2022/09/11 11:52:25;;;;;;;;;;;;;;;19.89;93.48;101947.38;5054595;28;20379;-72
2022/09/11 11:54:53;;;;;;;;;;;;;;;19.92;91.83;101951.69;5052257;28;19925;-71
2022/09/11 11:57:19;;;;;;;;;;;;;;;19.90;91.76;101956.31;5053223;28;19939;-71
2022/09/11 11:59:45;;;;;;;;;;;;;;;19.90;92.51;101957.19;5035020;28;19935;-71
2022/09/11 12:02:10;;;;;;;;;;;;;;;19.91;92.31;101961.59;5051801;28;19925;-71
2022/09/11 12:04:45;;;;;;;;;;;;;;;19.92;93.69;101957.06;5052277;28;19935;-71
2022/09/11 12:07:13;;;;;;;;;;;;;;;19.95;91.28;101957.75;5053060;28;20379;-71
2022/09/11 12:09:38;;;;;;;;;;;;;;;20.01;89.72;101952.94;5052637;28;19951;-71
2022/09/11 12:12:05;;;;;;;;;;;;;;;20.06;89.39;101953.50;5052069;28;19925;-71
2022/09/11 12:14:34;;;;;;;;;;;;;;;20.11;89.15;101950.47;5050106;28;19924;-71
2022/09/11 12:17:16;;;;;;;;;;;;;;;20.16;87.82;101965.31;5050408;28;19929;-70
2022/09/11 12:20:01;;;;;;;;;;;;;;;20.24;86.97;101959.41;5051496;28;19932;-71
2022/09/11 12:22:33;;;;;;;;;;;;;;;20.32;85.63;101961.59;5051986;28;20039;-71
2022/09/11 12:24:58;;;;;;;;;;;;;;;20.35;84.08;101955.97;5051408;28;19936;-71
2022/09/11 12:27:33;;;;;;;;;;;;;;;20.36;85.19;101955.00;5053680;28;20388;-71
2022/09/11 12:30:17;;;;;;;;;;;;;;;20.37;82.35;101951.34;5050730;28;19935;-71
2022/09/11 12:32:42;;;;;;;;;;;;;;;20.53;86.63;101950.28;5049763;28;19929;-71
2022/09/11 12:35:27;;;;;;;;;;;;;;;20.60;85.77;101951.56;5050520;28;20298;-71